Pierceville, Kansas
Current Conditions -  °F | °C
As of 11:13 PM on Wednesday 22 Oct 2014 (Local Time) from KGCK Reporting Station
Overcast Overcast  
Wind Chill: 60°   Ceiling: 1000
Heat Index: 60°   Visibility: 7mi
Dew Point: 57°   Wind: 10mph
Humidity: 90%   Direction: 190°S
Pressure: 30.08"   Gusts: NA
Location:  37.88°N, 100.68°W
Report Text: KGCK 230413Z AUTO 19009KT 7SM OVC010 16/14 A3008 RMK AO2 T01560139
Loading
Personal Weather Stations






























Interactive Weather Map
Tropical Storm Tracking
New forecast layout! Learn more

10-Day Weather Forecast

Advertisements
Track Severe Weather on mobile